sensor_id;sensor_type;location;lat;lon;timestamp;temperature;humidity
40077;DHT22;25777;47.824;18.982;2023-02-12T00:02:42;3.80;99.90
40077;DHT22;25777;47.824;18.982;2023-02-12T00:05:08;3.80;99.90
40077;DHT22;25777;47.824;18.982;2023-02-12T00:07:34;3.90;99.90
40077;DHT22;25777;47.824;18.982;2023-02-12T00:10:01;4.00;99.90
40077;DHT22;25777;47.824;18.982;2023-02-12T00:12:33;3.90;99.90
40077;DHT22;25777;47.824;18.982;2023-02-12T00:14:59;4.00;99.90
40077;DHT22;25777;47.824;18.982;2023-02-12T00:17:31;4.00;99.90
40077;DHT22;25777;47.824;18.982;2023-02-12T00:19:59;3.80;99.90
40077;DHT22;25777;47.824;18.982;2023-02-12T00:22:31;3.80;99.90
40077;DHT22;25777;47.824;18.982;2023-02-12T00:24:57;3.60;99.90
40077;DHT22;25777;47.824;18.982;2023-02-12T00:27:31;3.60;99.90
40077;DHT22;25777;47.824;18.982;2023-02-12T00:29:56;3.70;99.90
40077;DHT22;25777;47.824;18.982;2023-02-12T00:32:35;3.70;99.90
40077;DHT22;25777;47.824;18.982;2023-02-12T00:35:13;3.90;99.90
40077;DHT22;25777;47.824;18.982;2023-02-12T00:37:40;4.00;99.90
40077;DHT22;25777;47.824;18.982;2023-02-12T00:40:10;3.90;99.90
40077;DHT22;25777;47.824;18.982;2023-02-12T00:42:59;3.60;99.90
40077;DHT22;25777;47.824;18.982;2023-02-12T00:45:33;3.70;99.90
40077;DHT22;25777;47.824;18.982;2023-02-12T00:48:03;4.00;99.90
40077;DHT22;25777;47.824;18.982;2023-02-12T00:50:31;3.80;99.90
40077;DHT22;25777;47.824;18.982;2023-02-12T00:52:58;4.00;99.90
40077;DHT22;25777;47.824;18.982;2023-02-12T00:55:25;4.10;99.90
40077;DHT22;25777;47.824;18.982;2023-02-12T00:57:55;4.30;99.90
40077;DHT22;25777;47.824;18.982;2023-02-12T01:00:28;4.20;99.90
40077;DHT22;25777;47.824;18.982;2023-02-12T01:02:56;4.20;99.90
40077;DHT22;25777;47.824;18.982;2023-02-12T01:05:21;4.30;99.90
40077;DHT22;25777;47.824;18.982;2023-02-12T01:07:54;4.30;99.90
40077;DHT22;25777;47.824;18.982;2023-02-12T01:10:20;4.00;99.90
40077;DHT22;25777;47.824;18.982;2023-02-12T01:12:55;3.60;99.90
40077;DHT22;25777;47.824;18.982;2023-02-12T01:15:22;3.90;99.90
40077;DHT22;25777;47.824;18.982;2023-02-12T01:17:56;3.70;99.90
40077;DHT22;25777;47.824;18.982;2023-02-12T01:20:24;3.90;99.90
40077;DHT22;25777;47.824;18.982;2023-02-12T01:22:50;3.90;99.90
40077;DHT22;25777;47.824;18.982;2023-02-12T01:25:21;4.10;99.90
40077;DHT22;25777;47.824;18.982;2023-02-12T01:27:47;4.10;99.90
40077;DHT22;25777;47.824;18.982;2023-02-12T01:30:16;4.30;99.90
40077;DHT22;25777;47.824;18.982;2023-02-12T01:32:47;4.50;99.90
40077;DHT22;25777;47.824;18.982;2023-02-12T01:35:15;4.50;99.90
40077;DHT22;25777;47.824;18.982;2023-02-12T01:37:42;4.50;99.90
40077;DHT22;25777;47.824;18.982;2023-02-12T01:40:17;4.60;99.90
40077;DHT22;25777;47.824;18.982;2023-02-12T01:42:58;4.50;99.90
40077;DHT22;25777;47.824;18.982;2023-02-12T01:47:53;4.30;99.90
40077;DHT22;25777;47.824;18.982;2023-02-12T01:50:23;4.40;99.90
40077;DHT22;25777;47.824;18.982;2023-02-12T01:52:53;4.30;99.90
40077;DHT22;25777;47.824;18.982;2023-02-12T01:55:20;4.10;99.90
40077;DHT22;25777;47.824;18.982;2023-02-12T01:57:56;4.30;99.90
40077;DHT22;25777;47.824;18.982;2023-02-12T02:00:33;4.40;99.90
40077;DHT22;25777;47.824;18.982;2023-02-12T02:03:03;4.20;99.90
40077;DHT22;25777;47.824;18.982;2023-02-12T02:05:57;4.10;99.90
40077;DHT22;25777;47.824;18.982;2023-02-12T02:08:24;3.90;99.90
40077;DHT22;25777;47.824;18.982;2023-02-12T02:10:59;3.90;99.90
40077;DHT22;25777;47.824;18.982;2023-02-12T02:13:28;3.90;99.90
40077;DHT22;25777;47.824;18.982;2023-02-12T02:16:25;3.90;99.90
40077;DHT22;25777;47.824;18.982;2023-02-12T02:18:56;3.90;99.90
40077;DHT22;25777;47.824;18.982;2023-02-12T02:21:50;3.80;99.90
40077;DHT22;25777;47.824;18.982;2023-02-12T02:30:27;3.70;99.90
40077;DHT22;25777;47.824;18.982;2023-02-12T02:33:12;3.70;99.90
40077;DHT22;25777;47.824;18.982;2023-02-12T02:38:21;3.90;99.90
40077;DHT22;25777;47.824;18.982;2023-02-12T02:41:19;3.80;99.90
40077;DHT22;25777;47.824;18.982;2023-02-12T02:43:54;3.80;99.90
40077;DHT22;25777;47.824;18.982;2023-02-12T02:46:42;4.00;99.90
40077;DHT22;25777;47.824;18.982;2023-02-12T02:49:23;3.90;99.90
40077;DHT22;25777;47.824;18.982;2023-02-12T02:51:55;4.00;99.90
40077;DHT22;25777;47.824;18.982;2023-02-12T02:54:44;4.20;99.90
40077;DHT22;25777;47.824;18.982;2023-02-12T02:57:24;4.00;99.90
40077;DHT22;25777;47.824;18.982;2023-02-12T03:00:06;4.00;99.90
40077;DHT22;25777;47.824;18.982;2023-02-12T03:02:37;4.30;99.90
40077;DHT22;25777;47.824;18.982;2023-02-12T03:05:20;4.50;99.90
40077;DHT22;25777;47.824;18.982;2023-02-12T03:08:22;4.40;99.90
40077;DHT22;25777;47.824;18.982;2023-02-12T03:11:26;4.60;99.90
40077;DHT22;25777;47.824;18.982;2023-02-12T03:16:56;4.30;99.90
40077;DHT22;25777;47.824;18.982;2023-02-12T03:19:29;4.40;99.90
40077;DHT22;25777;47.824;18.982;2023-02-12T03:22:04;4.50;99.90
40077;DHT22;25777;47.824;18.982;2023-02-12T03:25:15;4.30;99.90
40077;DHT22;25777;47.824;18.982;2023-02-12T03:28:20;4.40;99.90
40077;DHT22;25777;47.824;18.982;2023-02-12T03:33:41;4.30;99.90
40077;DHT22;25777;47.824;18.982;2023-02-12T03:36:37;4.30;99.90
40077;DHT22;25777;47.824;18.982;2023-02-12T03:45:35;4.10;99.90
40077;DHT22;25777;47.824;18.982;2023-02-12T03:53:19;4.30;99.90
40077;DHT22;25777;47.824;18.982;2023-02-12T03:55:48;4.50;99.90
40077;DHT22;25777;47.824;18.982;2023-02-12T03:58:20;4.40;99.90
40077;DHT22;25777;47.824;18.982;2023-02-12T04:00:56;4.20;99.90
40077;DHT22;25777;47.824;18.982;2023-02-12T04:03:30;4.10;99.90
40077;DHT22;25777;47.824;18.982;2023-02-12T04:05:58;4.20;99.90
40077;DHT22;25777;47.824;18.982;2023-02-12T04:08:32;4.10;99.90
40077;DHT22;25777;47.824;18.982;2023-02-12T04:14:12;4.20;99.90
40077;DHT22;25777;47.824;18.982;2023-02-12T04:16:45;4.40;99.90
40077;DHT22;25777;47.824;18.982;2023-02-12T04:19:39;4.50;99.90
40077;DHT22;25777;47.824;18.982;2023-02-12T04:22:42;4.40;99.90
40077;DHT22;25777;47.824;18.982;2023-02-12T04:30:40;4.30;99.90
40077;DHT22;25777;47.824;18.982;2023-02-12T04:33:14;4.60;99.90
40077;DHT22;25777;47.824;18.982;2023-02-12T04:36:19;4.40;99.90
40077;DHT22;25777;47.824;18.982;2023-02-12T04:38:50;4.30;99.90
40077;DHT22;25777;47.824;18.982;2023-02-12T04:41:25;4.50;99.90
40077;DHT22;25777;47.824;18.982;2023-02-12T04:43:57;4.40;99.90
40077;DHT22;25777;47.824;18.982;2023-02-12T04:46:46;4.20;99.90
40077;DHT22;25777;47.824;18.982;2023-02-12T04:49:14;4.20;99.90
40077;DHT22;25777;47.824;18.982;2023-02-12T04:51:44;4.30;99.90
40077;DHT22;25777;47.824;18.982;2023-02-12T04:54:11;4.30;99.90
40077;DHT22;25777;47.824;18.982;2023-02-12T04:56:46;4.20;99.90
40077;DHT22;25777;47.824;18.982;2023-02-12T04:59:18;4.20;99.90
40077;DHT22;25777;47.824;18.982;2023-02-12T05:01:46;4.20;99.90
40077;DHT22;25777;47.824;18.982;2023-02-12T05:04:21;4.00;99.90
40077;DHT22;25777;47.824;18.982;2023-02-12T05:07:01;4.00;99.90
40077;DHT22;25777;47.824;18.982;2023-02-12T05:09:33;3.60;99.90
40077;DHT22;25777;47.824;18.982;2023-02-12T05:12:07;3.50;99.90
40077;DHT22;25777;47.824;18.982;2023-02-12T05:14:52;3.90;99.90
40077;DHT22;25777;47.824;18.982;2023-02-12T05:17:20;3.50;99.90
40077;DHT22;25777;47.824;18.982;2023-02-12T05:19:47;3.30;99.90
40077;DHT22;25777;47.824;18.982;2023-02-12T05:22:20;3.60;99.90
40077;DHT22;25777;47.824;18.982;2023-02-12T05:24:46;3.40;99.90
40077;DHT22;25777;47.824;18.982;2023-02-12T05:27:16;3.40;99.90
40077;DHT22;25777;47.824;18.982;2023-02-12T05:29:42;3.30;99.90
40077;DHT22;25777;47.824;18.982;2023-02-12T05:32:08;3.80;99.90
40077;DHT22;25777;47.824;18.982;2023-02-12T05:34:35;3.50;99.90
40077;DHT22;25777;47.824;18.982;2023-02-12T05:37:09;3.70;99.90
40077;DHT22;25777;47.824;18.982;2023-02-12T05:39:37;3.70;99.90
40077;DHT22;25777;47.824;18.982;2023-02-12T05:42:03;3.60;99.90
40077;DHT22;25777;47.824;18.982;2023-02-12T05:44:28;4.00;99.90
40077;DHT22;25777;47.824;18.982;2023-02-12T05:46:54;3.90;99.90
40077;DHT22;25777;47.824;18.982;2023-02-12T05:49:21;4.00;99.90
40077;DHT22;25777;47.824;18.982;2023-02-12T05:51:52;4.00;99.90
40077;DHT22;25777;47.824;18.982;2023-02-12T05:54:23;4.10;99.90
40077;DHT22;25777;47.824;18.982;2023-02-12T05:56:50;4.00;99.90
40077;DHT22;25777;47.824;18.982;2023-02-12T05:59:20;3.90;99.90
40077;DHT22;25777;47.824;18.982;2023-02-12T06:01:47;3.90;99.90
40077;DHT22;25777;47.824;18.982;2023-02-12T06:04:17;3.90;99.90
40077;DHT22;25777;47.824;18.982;2023-02-12T06:06:44;3.90;99.90
40077;DHT22;25777;47.824;18.982;2023-02-12T06:09:12;3.80;99.90
40077;DHT22;25777;47.824;18.982;2023-02-12T06:11:43;3.80;99.90
40077;DHT22;25777;47.824;18.982;2023-02-12T06:14:13;3.80;99.90
40077;DHT22;25777;47.824;18.982;2023-02-12T06:16:50;3.80;99.90
40077;DHT22;25777;47.824;18.982;2023-02-12T06:19:20;3.80;99.90
40077;DHT22;25777;47.824;18.982;2023-02-12T06:21:48;3.50;99.90
40077;DHT22;25777;47.824;18.982;2023-02-12T06:24:15;3.60;99.90
40077;DHT22;25777;47.824;18.982;2023-02-12T06:26:48;3.80;99.90
40077;DHT22;25777;47.824;18.982;2023-02-12T06:29:14;3.80;99.90
40077;DHT22;25777;47.824;18.982;2023-02-12T06:31:44;3.70;99.90
40077;DHT22;25777;47.824;18.982;2023-02-12T06:34:18;4.00;99.90
40077;DHT22;25777;47.824;18.982;2023-02-12T06:36:46;3.60;99.90
40077;DHT22;25777;47.824;18.982;2023-02-12T06:39:14;3.70;99.90
40077;DHT22;25777;47.824;18.982;2023-02-12T06:41:52;4.00;99.90
40077;DHT22;25777;47.824;18.982;2023-02-12T06:44:20;3.90;99.90
40077;DHT22;25777;47.824;18.982;2023-02-12T06:46:55;3.80;99.90
40077;DHT22;25777;47.824;18.982;2023-02-12T06:49:27;3.90;99.90
40077;DHT22;25777;47.824;18.982;2023-02-12T06:51:53;4.00;99.90
40077;DHT22;25777;47.824;18.982;2023-02-12T06:54:21;4.10;99.90
40077;DHT22;25777;47.824;18.982;2023-02-12T06:56:53;4.40;99.90
40077;DHT22;25777;47.824;18.982;2023-02-12T06:59:19;4.40;99.90
40077;DHT22;25777;47.824;18.982;2023-02-12T07:01:45;4.40;99.90
40077;DHT22;25777;47.824;18.982;2023-02-12T07:04:13;4.10;99.90
40077;DHT22;25777;47.824;18.982;2023-02-12T07:06:39;4.10;99.90
40077;DHT22;25777;47.824;18.982;2023-02-12T07:09:05;4.30;99.90
40077;DHT22;25777;47.824;18.982;2023-02-12T07:11:47;4.20;99.90
40077;DHT22;25777;47.824;18.982;2023-02-12T07:14:27;4.10;99.90
40077;DHT22;25777;47.824;18.982;2023-02-12T07:17:00;4.50;99.90
40077;DHT22;25777;47.824;18.982;2023-02-12T07:19:29;4.50;99.90
40077;DHT22;25777;47.824;18.982;2023-02-12T07:22:03;4.90;99.90
40077;DHT22;25777;47.824;18.982;2023-02-12T07:24:29;4.90;99.90
40077;DHT22;25777;47.824;18.982;2023-02-12T07:27:13;4.90;99.90
40077;DHT22;25777;47.824;18.982;2023-02-12T07:29:41;5.00;99.90
40077;DHT22;25777;47.824;18.982;2023-02-12T07:32:09;4.80;99.90
40077;DHT22;25777;47.824;18.982;2023-02-12T07:34:35;4.70;99.90
40077;DHT22;25777;47.824;18.982;2023-02-12T07:37:05;4.70;99.90
40077;DHT22;25777;47.824;18.982;2023-02-12T07:39:40;4.70;99.90
40077;DHT22;25777;47.824;18.982;2023-02-12T07:42:24;4.90;99.90
40077;DHT22;25777;47.824;18.982;2023-02-12T07:45:03;5.00;99.90
40077;DHT22;25777;47.824;18.982;2023-02-12T07:47:29;5.10;99.90
40077;DHT22;25777;47.824;18.982;2023-02-12T07:50:02;5.20;99.90
40077;DHT22;25777;47.824;18.982;2023-02-12T07:52:28;5.30;99.90
40077;DHT22;25777;47.824;18.982;2023-02-12T07:54:58;5.40;99.90
40077;DHT22;25777;47.824;18.982;2023-02-12T07:57:29;5.30;99.90
40077;DHT22;25777;47.824;18.982;2023-02-12T07:59:57;5.50;99.90
40077;DHT22;25777;47.824;18.982;2023-02-12T08:02:25;5.80;99.90
40077;DHT22;25777;47.824;18.982;2023-02-12T08:05:00;6.00;99.90
40077;DHT22;25777;47.824;18.982;2023-02-12T08:07:40;6.10;99.90
40077;DHT22;25777;47.824;18.982;2023-02-12T08:13:04;6.30;99.90
40077;DHT22;25777;47.824;18.982;2023-02-12T08:15:32;6.40;99.90
40077;DHT22;25777;47.824;18.982;2023-02-12T08:18:00;6.40;99.90
40077;DHT22;25777;47.824;18.982;2023-02-12T08:20:28;6.60;99.90
40077;DHT22;25777;47.824;18.982;2023-02-12T08:23:03;6.70;99.90
40077;DHT22;25777;47.824;18.982;2023-02-12T08:25:38;6.60;99.90
40077;DHT22;25777;47.824;18.982;2023-02-12T08:28:22;6.70;99.90
40077;DHT22;25777;47.824;18.982;2023-02-12T08:31:07;6.90;99.90
40077;DHT22;25777;47.824;18.982;2023-02-12T08:33:55;7.10;99.90
40077;DHT22;25777;47.824;18.982;2023-02-12T08:36:24;7.30;99.90
40077;DHT22;25777;47.824;18.982;2023-02-12T08:38:58;7.40;99.90
40077;DHT22;25777;47.824;18.982;2023-02-12T08:41:28;7.60;99.90
40077;DHT22;25777;47.824;18.982;2023-02-12T08:43:58;7.70;99.90
40077;DHT22;25777;47.824;18.982;2023-02-12T08:46:37;7.70;99.90
40077;DHT22;25777;47.824;18.982;2023-02-12T08:49:21;7.70;99.90
40077;DHT22;25777;47.824;18.982;2023-02-12T08:51:51;7.80;99.90
40077;DHT22;25777;47.824;18.982;2023-02-12T08:54:24;7.90;99.90
40077;DHT22;25777;47.824;18.982;2023-02-12T08:56:57;8.20;99.90
40077;DHT22;25777;47.824;18.982;2023-02-12T08:59:24;8.40;99.90
40077;DHT22;25777;47.824;18.982;2023-02-12T09:01:51;8.60;99.90
40077;DHT22;25777;47.824;18.982;2023-02-12T09:04:35;8.50;99.90
40077;DHT22;25777;47.824;18.982;2023-02-12T09:07:14;8.50;99.90
40077;DHT22;25777;47.824;18.982;2023-02-12T09:09:40;8.70;99.90
40077;DHT22;25777;47.824;18.982;2023-02-12T09:15:04;9.00;99.90
40077;DHT22;25777;47.824;18.982;2023-02-12T09:17:31;9.20;99.90
40077;DHT22;25777;47.824;18.982;2023-02-12T09:20:10;9.40;99.90
40077;DHT22;25777;47.824;18.982;2023-02-12T09:22:44;9.50;99.10
40077;DHT22;25777;47.824;18.982;2023-02-12T09:25:24;9.40;98.90
40077;DHT22;25777;47.824;18.982;2023-02-12T09:27:56;9.50;98.50
40077;DHT22;25777;47.824;18.982;2023-02-12T09:30:23;9.60;98.20
40077;DHT22;25777;47.824;18.982;2023-02-12T09:32:57;9.90;97.20
40077;DHT22;25777;47.824;18.982;2023-02-12T09:35:26;9.90;96.60
40077;DHT22;25777;47.824;18.982;2023-02-12T09:38:04;10.10;96.30
40077;DHT22;25777;47.824;18.982;2023-02-12T09:43:43;10.70;95.20
40077;DHT22;25777;47.824;18.982;2023-02-12T09:52:32;10.00;94.60
40077;DHT22;25777;47.824;18.982;2023-02-12T09:55:00;9.90;94.80
40077;DHT22;25777;47.824;18.982;2023-02-12T09:57:52;10.40;94.40
40077;DHT22;25777;47.824;18.982;2023-02-12T10:00:30;10.60;93.10
40077;DHT22;25777;47.824;18.982;2023-02-12T10:03:12;10.30;92.60
40077;DHT22;25777;47.824;18.982;2023-02-12T10:06:00;10.60;93.40
40077;DHT22;25777;47.824;18.982;2023-02-12T10:17:07;10.80;91.00
40077;DHT22;25777;47.824;18.982;2023-02-12T10:23:16;12.00;88.20
40077;DHT22;25777;47.824;18.982;2023-02-12T10:28:54;11.30;87.20
40077;DHT22;25777;47.824;18.982;2023-02-12T10:31:32;11.50;88.90
40077;DHT22;25777;47.824;18.982;2023-02-12T10:43:22;12.10;84.80
40077;DHT22;25777;47.824;18.982;2023-02-12T10:45:53;12.10;81.00
40077;DHT22;25777;47.824;18.982;2023-02-12T10:48:32;12.70;79.80
40077;DHT22;25777;47.824;18.982;2023-02-12T10:54:38;13.50;78.60
40077;DHT22;25777;47.824;18.982;2023-02-12T11:00:25;13.60;78.80
40077;DHT22;25777;47.824;18.982;2023-02-12T11:08:46;13.40;77.80
40077;DHT22;25777;47.824;18.982;2023-02-12T11:11:22;13.40;76.80
40077;DHT22;25777;47.824;18.982;2023-02-12T11:14:16;12.90;77.10
40077;DHT22;25777;47.824;18.982;2023-02-12T11:16:59;12.40;78.80
40077;DHT22;25777;47.824;18.982;2023-02-12T11:19:32;11.70;79.70
40077;DHT22;25777;47.824;18.982;2023-02-12T11:22:11;11.50;82.60
40077;DHT22;25777;47.824;18.982;2023-02-12T11:24:44;11.40;83.00
40077;DHT22;25777;47.824;18.982;2023-02-12T11:27:19;11.20;83.00
40077;DHT22;25777;47.824;18.982;2023-02-12T11:32:34;12.50;80.70
40077;DHT22;25777;47.824;18.982;2023-02-12T11:35:14;12.30;79.80
40077;DHT22;25777;47.824;18.982;2023-02-12T11:37:59;11.70;81.30
40077;DHT22;25777;47.824;18.982;2023-02-12T11:40:30;11.40;81.30
40077;DHT22;25777;47.824;18.982;2023-02-12T11:43:03;11.30;81.60
40077;DHT22;25777;47.824;18.982;2023-02-12T11:45:44;10.90;82.00
40077;DHT22;25777;47.824;18.982;2023-02-12T11:50:59;10.70;83.20
40077;DHT22;25777;47.824;18.982;2023-02-12T11:53:36;10.60;83.10
40077;DHT22;25777;47.824;18.982;2023-02-12T11:56:09;10.60;82.70
40077;DHT22;25777;47.824;18.982;2023-02-12T11:58:36;10.50;83.90
40077;DHT22;25777;47.824;18.982;2023-02-12T12:04:13;10.60;80.50
40077;DHT22;25777;47.824;18.982;2023-02-12T12:09:32;10.70;82.40
40077;DHT22;25777;47.824;18.982;2023-02-12T12:12:16;10.60;80.90
40077;DHT22;25777;47.824;18.982;2023-02-12T12:17:58;10.50;82.80
40077;DHT22;25777;47.824;18.982;2023-02-12T12:21:07;10.40;82.50
40077;DHT22;25777;47.824;18.982;2023-02-12T12:23:41;10.40;81.80
40077;DHT22;25777;47.824;18.982;2023-02-12T12:26:35;10.30;82.00
40077;DHT22;25777;47.824;18.982;2023-02-12T12:29:23;10.40;81.20
40077;DHT22;25777;47.824;18.982;2023-02-12T12:32:00;10.30;80.90
40077;DHT22;25777;47.824;18.982;2023-02-12T12:34:28;10.20;81.40
40077;DHT22;25777;47.824;18.982;2023-02-12T13:02:04;10.20;81.90
40077;DHT22;25777;47.824;18.982;2023-02-12T13:05:07;10.10;81.80
40077;DHT22;25777;47.824;18.982;2023-02-12T13:08:02;10.00;82.10
40077;DHT22;25777;47.824;18.982;2023-02-12T13:10:41;9.70;82.40
40077;DHT22;25777;47.824;18.982;2023-02-12T13:19:10;10.10;81.60
40077;DHT22;25777;47.824;18.982;2023-02-12T13:27:31;9.80;84.40
40077;DHT22;25777;47.824;18.982;2023-02-12T13:33:09;9.30;86.70
40077;DHT22;25777;47.824;18.982;2023-02-12T13:35:53;9.10;87.30
40077;DHT22;25777;47.824;18.982;2023-02-12T13:38:30;8.90;87.90
40077;DHT22;25777;47.824;18.982;2023-02-12T13:41:03;8.80;88.40
40077;DHT22;25777;47.824;18.982;2023-02-12T13:46:45;8.80;87.70
40077;DHT22;25777;47.824;18.982;2023-02-12T13:56:18;8.70;88.60
40077;DHT22;25777;47.824;18.982;2023-02-12T13:58:56;8.70;88.30
40077;DHT22;25777;47.824;18.982;2023-02-12T14:12:46;8.30;88.10
40077;DHT22;25777;47.824;18.982;2023-02-12T14:18:31;8.00;88.40
40077;DHT22;25777;47.824;18.982;2023-02-12T14:23:47;7.80;89.10
40077;DHT22;25777;47.824;18.982;2023-02-12T14:26:19;7.80;89.40
40077;DHT22;25777;47.824;18.982;2023-02-12T14:29:02;7.90;89.40
40077;DHT22;25777;47.824;18.982;2023-02-12T14:31:38;7.70;90.00
40077;DHT22;25777;47.824;18.982;2023-02-12T14:41:55;7.50;90.60
40077;DHT22;25777;47.824;18.982;2023-02-12T14:44:47;7.20;91.20
40077;DHT22;25777;47.824;18.982;2023-02-12T14:50:18;7.10;91.70
40077;DHT22;25777;47.824;18.982;2023-02-12T14:52:59;6.80;92.10
40077;DHT22;25777;47.824;18.982;2023-02-12T14:55:31;6.80;92.10
40077;DHT22;25777;47.824;18.982;2023-02-12T14:58:15;6.60;92.40
40077;DHT22;25777;47.824;18.982;2023-02-12T15:00:48;6.70;92.40
40077;DHT22;25777;47.824;18.982;2023-02-12T15:06:15;6.60;92.90
40077;DHT22;25777;47.824;18.982;2023-02-12T15:09:02;6.50;92.90
40077;DHT22;25777;47.824;18.982;2023-02-12T15:11:43;6.40;93.30
40077;DHT22;25777;47.824;18.982;2023-02-12T15:14:32;6.40;93.60
40077;DHT22;25777;47.824;18.982;2023-02-12T15:17:07;6.20;94.30
40077;DHT22;25777;47.824;18.982;2023-02-12T15:20:01;6.00;94.50
40077;DHT22;25777;47.824;18.982;2023-02-12T15:22:39;5.80;94.90
40077;DHT22;25777;47.824;18.982;2023-02-12T15:25:25;5.70;95.40
40077;DHT22;25777;47.824;18.982;2023-02-12T15:28:00;5.60;95.50
40077;DHT22;25777;47.824;18.982;2023-02-12T15:30:33;5.40;96.20
40077;DHT22;25777;47.824;18.982;2023-02-12T15:33:04;5.20;96.60
40077;DHT22;25777;47.824;18.982;2023-02-12T15:35:35;5.00;97.50
40077;DHT22;25777;47.824;18.982;2023-02-12T15:38:22;5.00;97.80
40077;DHT22;25777;47.824;18.982;2023-02-12T15:41:03;4.80;97.90
40077;DHT22;25777;47.824;18.982;2023-02-12T15:43:33;4.50;99.10
40077;DHT22;25777;47.824;18.982;2023-02-12T15:46:04;4.50;99.50
40077;DHT22;25777;47.824;18.982;2023-02-12T15:48:34;4.10;99.90
40077;DHT22;25777;47.824;18.982;2023-02-12T15:53:52;4.00;99.90
40077;DHT22;25777;47.824;18.982;2023-02-12T15:56:23;3.80;99.90
40077;DHT22;25777;47.824;18.982;2023-02-12T15:58:52;3.70;99.90
40077;DHT22;25777;47.824;18.982;2023-02-12T16:01:28;3.50;99.90
40077;DHT22;25777;47.824;18.982;2023-02-12T16:03:59;3.30;99.90
40077;DHT22;25777;47.824;18.982;2023-02-12T16:06:34;3.30;99.90
40077;DHT22;25777;47.824;18.982;2023-02-12T16:09:05;3.20;99.90
40077;DHT22;25777;47.824;18.982;2023-02-12T16:11:36;3.00;99.90
40077;DHT22;25777;47.824;18.982;2023-02-12T16:14:07;2.80;99.90
40077;DHT22;25777;47.824;18.982;2023-02-12T16:16:48;2.80;99.90
40077;DHT22;25777;47.824;18.982;2023-02-12T16:19:30;2.70;99.90
40077;DHT22;25777;47.824;18.982;2023-02-12T16:22:16;2.50;99.90
40077;DHT22;25777;47.824;18.982;2023-02-12T16:24:52;2.20;99.90
40077;DHT22;25777;47.824;18.982;2023-02-12T16:27:27;2.20;99.90
40077;DHT22;25777;47.824;18.982;2023-02-12T16:33:01;2.10;99.90
40077;DHT22;25777;47.824;18.982;2023-02-12T16:35:43;1.80;99.90
40077;DHT22;25777;47.824;18.982;2023-02-12T16:38:44;1.90;99.90
40077;DHT22;25777;47.824;18.982;2023-02-12T16:46:33;1.80;99.90
40077;DHT22;25777;47.824;18.982;2023-02-12T16:49:14;1.70;99.90
40077;DHT22;25777;47.824;18.982;2023-02-12T16:51:43;1.30;99.90
40077;DHT22;25777;47.824;18.982;2023-02-12T16:57:18;1.20;99.90
40077;DHT22;25777;47.824;18.982;2023-02-12T16:59:44;1.40;99.90
40077;DHT22;25777;47.824;18.982;2023-02-12T17:02:12;1.30;99.90
40077;DHT22;25777;47.824;18.982;2023-02-12T17:04:48;1.10;99.90
40077;DHT22;25777;47.824;18.982;2023-02-12T17:07:31;1.20;99.90
40077;DHT22;25777;47.824;18.982;2023-02-12T17:10:12;0.90;99.90
40077;DHT22;25777;47.824;18.982;2023-02-12T17:12:51;0.80;99.90
40077;DHT22;25777;47.824;18.982;2023-02-12T17:15:24;0.80;99.90
40077;DHT22;25777;47.824;18.982;2023-02-12T17:18:01;0.60;99.90
40077;DHT22;25777;47.824;18.982;2023-02-12T17:20:26;0.60;99.90
40077;DHT22;25777;47.824;18.982;2023-02-12T17:22:58;0.70;99.90
40077;DHT22;25777;47.824;18.982;2023-02-12T17:25:29;0.50;99.90
40077;DHT22;25777;47.824;18.982;2023-02-12T17:27:57;0.40;99.90
40077;DHT22;25777;47.824;18.982;2023-02-12T17:30:32;0.40;99.90
40077;DHT22;25777;47.824;18.982;2023-02-12T17:32:59;0.40;99.90
40077;DHT22;25777;47.824;18.982;2023-02-12T17:35:47;0.40;99.90
40077;DHT22;25777;47.824;18.982;2023-02-12T17:38:29;0.40;99.90
40077;DHT22;25777;47.824;18.982;2023-02-12T17:40:57;0.20;99.90
40077;DHT22;25777;47.824;18.982;2023-02-12T17:43:30;0.10;99.90
40077;DHT22;25777;47.824;18.982;2023-02-12T17:46:25;0.20;99.90
40077;DHT22;25777;47.824;18.982;2023-02-12T17:48:51;0.20;99.90
40077;DHT22;25777;47.824;18.982;2023-02-12T17:51:31;0.00;99.90
40077;DHT22;25777;47.824;18.982;2023-02-12T17:54:04;0.00;99.90
40077;DHT22;25777;47.824;18.982;2023-02-12T17:56:31;-0.10;99.90
40077;DHT22;25777;47.824;18.982;2023-02-12T17:59:10;0.00;99.90
40077;DHT22;25777;47.824;18.982;2023-02-12T18:01:44;-0.10;99.90
40077;DHT22;25777;47.824;18.982;2023-02-12T18:04:16;-0.10;99.90
40077;DHT22;25777;47.824;18.982;2023-02-12T18:06:43;-0.10;99.90
40077;DHT22;25777;47.824;18.982;2023-02-12T18:09:11;-0.20;99.90
40077;DHT22;25777;47.824;18.982;2023-02-12T18:11:52;-0.10;99.90
40077;DHT22;25777;47.824;18.982;2023-02-12T18:14:21;-0.10;99.90
40077;DHT22;25777;47.824;18.982;2023-02-12T18:17:03;-0.30;99.90
40077;DHT22;25777;47.824;18.982;2023-02-12T18:19:30;-0.30;99.90
40077;DHT22;25777;47.824;18.982;2023-02-12T18:22:01;-0.30;99.90
40077;DHT22;25777;47.824;18.982;2023-02-12T18:24:27;-0.30;99.90
40077;DHT22;25777;47.824;18.982;2023-02-12T18:26:55;-0.30;99.90
40077;DHT22;25777;47.824;18.982;2023-02-12T18:29:21;-0.10;99.90
40077;DHT22;25777;47.824;18.982;2023-02-12T18:31:49;-0.20;99.90
40077;DHT22;25777;47.824;18.982;2023-02-12T18:34:15;-0.10;99.90
40077;DHT22;25777;47.824;18.982;2023-02-12T18:36:41;-0.10;99.90
40077;DHT22;25777;47.824;18.982;2023-02-12T18:39:31;-0.30;99.90
40077;DHT22;25777;47.824;18.982;2023-02-12T18:42:06;-0.40;99.90
40077;DHT22;25777;47.824;18.982;2023-02-12T18:44:37;-0.50;99.90
40077;DHT22;25777;47.824;18.982;2023-02-12T18:47:18;-0.50;99.90
40077;DHT22;25777;47.824;18.982;2023-02-12T18:49:47;-0.40;99.90
40077;DHT22;25777;47.824;18.982;2023-02-12T18:52:13;-0.50;99.90
40077;DHT22;25777;47.824;18.982;2023-02-12T18:54:40;-0.40;99.90
40077;DHT22;25777;47.824;18.982;2023-02-12T18:57:14;-0.50;99.90
40077;DHT22;25777;47.824;18.982;2023-02-12T18:59:48;-0.60;99.90
40077;DHT22;25777;47.824;18.982;2023-02-12T19:02:19;-0.60;99.90
40077;DHT22;25777;47.824;18.982;2023-02-12T19:04:52;-0.60;99.90
40077;DHT22;25777;47.824;18.982;2023-02-12T19:07:17;-0.70;99.90
40077;DHT22;25777;47.824;18.982;2023-02-12T19:09:43;-0.50;99.90
40077;DHT22;25777;47.824;18.982;2023-02-12T19:12:11;-0.60;99.90
40077;DHT22;25777;47.824;18.982;2023-02-12T19:14:49;-0.50;99.90
40077;DHT22;25777;47.824;18.982;2023-02-12T19:17:15;-0.60;99.90
40077;DHT22;25777;47.824;18.982;2023-02-12T19:19:41;-0.60;99.90
40077;DHT22;25777;47.824;18.982;2023-02-12T19:22:06;-0.60;99.90
40077;DHT22;25777;47.824;18.982;2023-02-12T19:24:50;-0.70;99.90
40077;DHT22;25777;47.824;18.982;2023-02-12T19:27:18;-0.70;99.90
40077;DHT22;25777;47.824;18.982;2023-02-12T19:29:58;-0.70;99.90
40077;DHT22;25777;47.824;18.982;2023-02-12T19:32:24;-0.90;99.90